Terminal Aerodrome Forecast
Issued by NWS

Home | Current Version | Previous Version | Text Only | Print | Product List | Glossary On
Versions: 1 2 3 4 5 6 7 8 9 10 11 12 13 14 15 16 17 18 19 20 21 22 23
000
FTUS46 KSGX 280700 AAA
TAFCRQ
TAF AMD
KCRQ 280706Z 2807/2906 VRB03KT P6SM VCSH FEW009 SCT100 BKN200
      TEMPO 2810/2814 BKN008
     FM281600 VRB05KT P6SM SCT010 BKN080
     FM282000 26009KT P6SM BKN100
     FM290300 VRB03KT P6SM BKN009=

USA.gov is the U.S. government's official web portal to all federal, state and local government web resources and services.